sensor_id;sensor_type;location;lat;lon;timestamp;P1;durP1;ratioP1;P2;durP2;ratioP2
44189;SDS011;29856;52.144;5.430;2022-12-26T00:00:14;19.95;;;14.00;;
44189;SDS011;29856;52.144;5.430;2022-12-26T00:02:40;19.88;;;13.55;;
44189;SDS011;29856;52.144;5.430;2022-12-26T00:05:06;18.65;;;13.20;;
44189;SDS011;29856;52.144;5.430;2022-12-26T00:07:32;21.42;;;14.35;;
44189;SDS011;29856;52.144;5.430;2022-12-26T00:09:57;24.75;;;14.65;;
44189;SDS011;29856;52.144;5.430;2022-12-26T00:12:23;23.15;;;15.05;;
44189;SDS011;29856;52.144;5.430;2022-12-26T00:14:48;20.27;;;13.70;;
44189;SDS011;29856;52.144;5.430;2022-12-26T00:17:14;22.83;;;15.95;;
44189;SDS011;29856;52.144;5.430;2022-12-26T00:19:39;22.45;;;15.27;;
44189;SDS011;29856;52.144;5.430;2022-12-26T00:22:05;21.38;;;15.32;;
44189;SDS011;29856;52.144;5.430;2022-12-26T00:24:30;22.17;;;15.93;;
44189;SDS011;29856;52.144;5.430;2022-12-26T00:26:56;23.95;;;16.90;;
44189;SDS011;29856;52.144;5.430;2022-12-26T00:29:21;25.92;;;16.63;;
44189;SDS011;29856;52.144;5.430;2022-12-26T00:31:47;23.58;;;17.27;;
44189;SDS011;29856;52.144;5.430;2022-12-26T00:34:12;24.30;;;17.15;;
44189;SDS011;29856;52.144;5.430;2022-12-26T00:36:38;25.55;;;17.88;;
44189;SDS011;29856;52.144;5.430;2022-12-26T00:39:03;24.98;;;17.88;;
44189;SDS011;29856;52.144;5.430;2022-12-26T00:41:29;24.35;;;16.83;;
44189;SDS011;29856;52.144;5.430;2022-12-26T00:43:55;24.48;;;17.10;;
44189;SDS011;29856;52.144;5.430;2022-12-26T00:46:21;24.25;;;17.83;;
44189;SDS011;29856;52.144;5.430;2022-12-26T00:48:47;26.02;;;17.92;;
44189;SDS011;29856;52.144;5.430;2022-12-26T00:51:13;27.42;;;18.00;;
44189;SDS011;29856;52.144;5.430;2022-12-26T00:53:39;27.30;;;19.05;;
44189;SDS011;29856;52.144;5.430;2022-12-26T00:56:05;28.15;;;19.33;;
44189;SDS011;29856;52.144;5.430;2022-12-26T00:58:30;26.75;;;19.50;;
44189;SDS011;29856;52.144;5.430;2022-12-26T01:01:13;25.25;;;18.00;;
44189;SDS011;29856;52.144;5.430;2022-12-26T01:03:40;26.73;;;18.30;;
44189;SDS011;29856;52.144;5.430;2022-12-26T01:06:07;24.40;;;16.50;;
44189;SDS011;29856;52.144;5.430;2022-12-26T01:08:32;23.35;;;16.27;;
44189;SDS011;29856;52.144;5.430;2022-12-26T01:11:01;23.73;;;16.33;;
44189;SDS011;29856;52.144;5.430;2022-12-26T01:13:34;24.70;;;17.02;;
44189;SDS011;29856;52.144;5.430;2022-12-26T01:16:00;21.70;;;16.60;;
44189;SDS011;29856;52.144;5.430;2022-12-26T01:18:26;22.40;;;15.82;;
44189;SDS011;29856;52.144;5.430;2022-12-26T01:20:56;26.02;;;16.88;;
44189;SDS011;29856;52.144;5.430;2022-12-26T01:23:23;24.75;;;17.30;;
44189;SDS011;29856;52.144;5.430;2022-12-26T01:25:48;27.70;;;18.15;;
44189;SDS011;29856;52.144;5.430;2022-12-26T01:28:13;23.85;;;16.80;;
44189;SDS011;29856;52.144;5.430;2022-12-26T01:30:39;25.45;;;17.13;;
44189;SDS011;29856;52.144;5.430;2022-12-26T01:33:04;26.52;;;18.17;;
44189;SDS011;29856;52.144;5.430;2022-12-26T01:35:30;23.88;;;17.45;;
44189;SDS011;29856;52.144;5.430;2022-12-26T01:37:55;24.13;;;16.80;;
44189;SDS011;29856;52.144;5.430;2022-12-26T01:40:21;26.52;;;18.40;;
44189;SDS011;29856;52.144;5.430;2022-12-26T01:42:46;26.45;;;18.75;;
44189;SDS011;29856;52.144;5.430;2022-12-26T01:45:25;24.67;;;18.75;;
44189;SDS011;29856;52.144;5.430;2022-12-26T01:53:18;31.38;;;20.23;;
44189;SDS011;29856;52.144;5.430;2022-12-26T01:55:49;31.08;;;20.73;;
44189;SDS011;29856;52.144;5.430;2022-12-26T01:58:26;33.05;;;21.55;;
44189;SDS011;29856;52.144;5.430;2022-12-26T02:00:57;31.92;;;21.92;;
44189;SDS011;29856;52.144;5.430;2022-12-26T02:03:23;32.10;;;22.33;;
44189;SDS011;29856;52.144;5.430;2022-12-26T02:05:48;35.30;;;24.50;;
44189;SDS011;29856;52.144;5.430;2022-12-26T02:08:15;35.70;;;25.02;;
44189;SDS011;29856;52.144;5.430;2022-12-26T02:10:52;31.73;;;23.52;;
44189;SDS011;29856;52.144;5.430;2022-12-26T02:13:38;36.20;;;24.63;;
44189;SDS011;29856;52.144;5.430;2022-12-26T02:16:06;35.90;;;23.73;;
44189;SDS011;29856;52.144;5.430;2022-12-26T02:18:33;35.47;;;23.83;;
44189;SDS011;29856;52.144;5.430;2022-12-26T02:32:33;34.70;;;23.98;;
44189;SDS011;29856;52.144;5.430;2022-12-26T02:35:23;36.67;;;25.25;;
44189;SDS011;29856;52.144;5.430;2022-12-26T02:38:16;35.00;;;24.08;;
44189;SDS011;29856;52.144;5.430;2022-12-26T02:41:06;35.22;;;23.73;;
44189;SDS011;29856;52.144;5.430;2022-12-26T02:43:40;31.23;;;21.65;;
44189;SDS011;29856;52.144;5.430;2022-12-26T02:46:31;33.03;;;22.48;;
44189;SDS011;29856;52.144;5.430;2022-12-26T02:54:51;30.55;;;23.05;;
44189;SDS011;29856;52.144;5.430;2022-12-26T02:57:30;32.22;;;24.40;;
44189;SDS011;29856;52.144;5.430;2022-12-26T03:00:05;32.08;;;24.08;;
44189;SDS011;29856;52.144;5.430;2022-12-26T03:02:58;32.28;;;24.60;;
44189;SDS011;29856;52.144;5.430;2022-12-26T03:08:09;32.00;;;24.98;;
44189;SDS011;29856;52.144;5.430;2022-12-26T03:10:41;32.28;;;24.95;;
44189;SDS011;29856;52.144;5.430;2022-12-26T03:13:10;36.17;;;26.45;;
44189;SDS011;29856;52.144;5.430;2022-12-26T03:18:10;31.08;;;24.67;;
44189;SDS011;29856;52.144;5.430;2022-12-26T03:20:35;32.72;;;23.70;;
44189;SDS011;29856;52.144;5.430;2022-12-26T03:23:06;32.25;;;23.83;;
44189;SDS011;29856;52.144;5.430;2022-12-26T03:25:54;27.95;;;22.73;;
44189;SDS011;29856;52.144;5.430;2022-12-26T03:28:21;30.30;;;23.85;;
44189;SDS011;29856;52.144;5.430;2022-12-26T03:30:48;30.08;;;23.42;;
44189;SDS011;29856;52.144;5.430;2022-12-26T03:35:47;32.60;;;23.92;;
44189;SDS011;29856;52.144;5.430;2022-12-26T03:38:12;30.98;;;24.23;;
44189;SDS011;29856;52.144;5.430;2022-12-26T03:46:16;29.75;;;24.10;;
44189;SDS011;29856;52.144;5.430;2022-12-26T03:49:11;29.77;;;24.10;;
44189;SDS011;29856;52.144;5.430;2022-12-26T03:51:51;29.52;;;23.55;;
44189;SDS011;29856;52.144;5.430;2022-12-26T03:57:30;27.30;;;21.30;;
44189;SDS011;29856;52.144;5.430;2022-12-26T04:00:06;26.92;;;21.92;;
44189;SDS011;29856;52.144;5.430;2022-12-26T04:02:34;27.83;;;22.50;;
44189;SDS011;29856;52.144;5.430;2022-12-26T04:05:02;26.95;;;20.92;;
44189;SDS011;29856;52.144;5.430;2022-12-26T04:07:31;26.98;;;21.42;;
44189;SDS011;29856;52.144;5.430;2022-12-26T04:10:05;27.45;;;20.40;;
44189;SDS011;29856;52.144;5.430;2022-12-26T04:12:43;23.98;;;20.23;;
44189;SDS011;29856;52.144;5.430;2022-12-26T04:15:19;26.25;;;20.25;;
44189;SDS011;29856;52.144;5.430;2022-12-26T04:17:55;26.95;;;20.83;;
44189;SDS011;29856;52.144;5.430;2022-12-26T04:23:17;25.85;;;19.58;;
44189;SDS011;29856;52.144;5.430;2022-12-26T04:25:51;22.10;;;18.30;;
44189;SDS011;29856;52.144;5.430;2022-12-26T04:28:23;20.92;;;17.48;;
44189;SDS011;29856;52.144;5.430;2022-12-26T04:30:55;24.80;;;17.98;;
44189;SDS011;29856;52.144;5.430;2022-12-26T04:33:30;22.10;;;17.88;;
44189;SDS011;29856;52.144;5.430;2022-12-26T04:36:02;20.23;;;17.17;;
44189;SDS011;29856;52.144;5.430;2022-12-26T04:38:34;21.02;;;17.70;;
44189;SDS011;29856;52.144;5.430;2022-12-26T04:41:03;22.92;;;16.95;;
44189;SDS011;29856;52.144;5.430;2022-12-26T04:43:30;20.20;;;16.98;;
44189;SDS011;29856;52.144;5.430;2022-12-26T04:45:57;21.45;;;17.23;;
44189;SDS011;29856;52.144;5.430;2022-12-26T04:48:24;20.83;;;16.80;;
44189;SDS011;29856;52.144;5.430;2022-12-26T04:50:50;22.17;;;17.50;;
44189;SDS011;29856;52.144;5.430;2022-12-26T04:53:17;19.15;;;16.92;;
44189;SDS011;29856;52.144;5.430;2022-12-26T04:55:43;21.90;;;17.48;;
44189;SDS011;29856;52.144;5.430;2022-12-26T04:58:09;22.15;;;17.60;;
44189;SDS011;29856;52.144;5.430;2022-12-26T05:00:34;20.63;;;16.83;;
44189;SDS011;29856;52.144;5.430;2022-12-26T05:03:00;22.25;;;18.67;;
44189;SDS011;29856;52.144;5.430;2022-12-26T05:05:25;25.67;;;19.63;;
44189;SDS011;29856;52.144;5.430;2022-12-26T05:07:51;27.00;;;20.00;;
44189;SDS011;29856;52.144;5.430;2022-12-26T05:10:18;24.67;;;19.38;;
44189;SDS011;29856;52.144;5.430;2022-12-26T05:12:45;24.02;;;19.13;;
44189;SDS011;29856;52.144;5.430;2022-12-26T05:15:12;24.48;;;20.35;;
44189;SDS011;29856;52.144;5.430;2022-12-26T05:17:38;25.40;;;20.80;;
44189;SDS011;29856;52.144;5.430;2022-12-26T05:20:04;26.77;;;21.42;;
44189;SDS011;29856;52.144;5.430;2022-12-26T05:22:30;31.42;;;22.10;;
44189;SDS011;29856;52.144;5.430;2022-12-26T05:24:58;28.10;;;22.70;;
44189;SDS011;29856;52.144;5.430;2022-12-26T05:27:24;28.25;;;22.55;;
44189;SDS011;29856;52.144;5.430;2022-12-26T05:29:57;30.80;;;24.10;;
44189;SDS011;29856;52.144;5.430;2022-12-26T05:32:23;30.00;;;23.00;;
44189;SDS011;29856;52.144;5.430;2022-12-26T05:34:49;29.25;;;23.35;;
44189;SDS011;29856;52.144;5.430;2022-12-26T05:37:14;30.95;;;22.65;;
44189;SDS011;29856;52.144;5.430;2022-12-26T05:39:40;26.60;;;20.85;;
44189;SDS011;29856;52.144;5.430;2022-12-26T05:42:05;26.10;;;19.52;;
44189;SDS011;29856;52.144;5.430;2022-12-26T05:44:31;25.52;;;20.65;;
44189;SDS011;29856;52.144;5.430;2022-12-26T05:46:56;25.10;;;19.92;;
44189;SDS011;29856;52.144;5.430;2022-12-26T05:49:21;25.17;;;19.92;;
44189;SDS011;29856;52.144;5.430;2022-12-26T05:51:49;22.73;;;17.80;;
44189;SDS011;29856;52.144;5.430;2022-12-26T05:54:14;19.88;;;16.73;;
44189;SDS011;29856;52.144;5.430;2022-12-26T05:56:40;25.42;;;18.20;;
44189;SDS011;29856;52.144;5.430;2022-12-26T05:59:05;22.42;;;16.25;;
44189;SDS011;29856;52.144;5.430;2022-12-26T06:01:33;20.92;;;16.73;;
44189;SDS011;29856;52.144;5.430;2022-12-26T06:03:58;18.55;;;15.65;;
44189;SDS011;29856;52.144;5.430;2022-12-26T06:06:24;18.52;;;15.27;;
44189;SDS011;29856;52.144;5.430;2022-12-26T06:08:51;17.17;;;14.38;;
44189;SDS011;29856;52.144;5.430;2022-12-26T06:11:18;16.52;;;14.68;;
44189;SDS011;29856;52.144;5.430;2022-12-26T06:13:44;16.38;;;13.68;;
44189;SDS011;29856;52.144;5.430;2022-12-26T06:16:11;19.10;;;13.90;;
44189;SDS011;29856;52.144;5.430;2022-12-26T06:18:38;15.85;;;12.80;;
44189;SDS011;29856;52.144;5.430;2022-12-26T06:21:08;13.57;;;11.55;;
44189;SDS011;29856;52.144;5.430;2022-12-26T06:23:52;16.75;;;12.63;;
44189;SDS011;29856;52.144;5.430;2022-12-26T06:26:18;17.02;;;11.45;;
44189;SDS011;29856;52.144;5.430;2022-12-26T06:28:43;13.48;;;11.80;;
44189;SDS011;29856;52.144;5.430;2022-12-26T06:31:13;11.98;;;10.05;;
44189;SDS011;29856;52.144;5.430;2022-12-26T06:33:41;14.10;;;10.57;;
44189;SDS011;29856;52.144;5.430;2022-12-26T06:36:14;13.32;;;10.65;;
44189;SDS011;29856;52.144;5.430;2022-12-26T06:38:41;11.63;;;9.25;;
44189;SDS011;29856;52.144;5.430;2022-12-26T06:41:08;13.07;;;10.20;;
44189;SDS011;29856;52.144;5.430;2022-12-26T06:43:35;13.90;;;10.63;;
44189;SDS011;29856;52.144;5.430;2022-12-26T06:46:04;12.43;;;9.93;;
44189;SDS011;29856;52.144;5.430;2022-12-26T06:48:30;11.90;;;9.50;;
44189;SDS011;29856;52.144;5.430;2022-12-26T06:50:56;12.30;;;8.70;;
44189;SDS011;29856;52.144;5.430;2022-12-26T06:53:26;11.15;;;8.50;;
44189;SDS011;29856;52.144;5.430;2022-12-26T06:55:51;10.93;;;9.10;;
44189;SDS011;29856;52.144;5.430;2022-12-26T06:58:17;15.00;;;8.85;;
44189;SDS011;29856;52.144;5.430;2022-12-26T07:00:42;12.50;;;9.52;;
44189;SDS011;29856;52.144;5.430;2022-12-26T07:03:08;13.50;;;8.73;;
44189;SDS011;29856;52.144;5.430;2022-12-26T07:05:35;11.05;;;8.88;;
44189;SDS011;29856;52.144;5.430;2022-12-26T07:08:01;13.13;;;8.43;;
44189;SDS011;29856;52.144;5.430;2022-12-26T07:10:27;13.65;;;8.27;;
44189;SDS011;29856;52.144;5.430;2022-12-26T07:12:53;13.40;;;8.40;;
44189;SDS011;29856;52.144;5.430;2022-12-26T07:15:18;13.52;;;8.70;;
44189;SDS011;29856;52.144;5.430;2022-12-26T07:17:44;13.43;;;9.07;;
44189;SDS011;29856;52.144;5.430;2022-12-26T07:20:09;9.63;;;7.85;;
44189;SDS011;29856;52.144;5.430;2022-12-26T07:22:35;12.55;;;8.23;;
44189;SDS011;29856;52.144;5.430;2022-12-26T07:25:01;10.65;;;7.82;;
44189;SDS011;29856;52.144;5.430;2022-12-26T07:27:27;9.93;;;7.55;;
44189;SDS011;29856;52.144;5.430;2022-12-26T07:29:52;11.32;;;7.60;;
44189;SDS011;29856;52.144;5.430;2022-12-26T07:32:18;13.13;;;8.45;;
44189;SDS011;29856;52.144;5.430;2022-12-26T07:34:43;10.90;;;6.57;;
44189;SDS011;29856;52.144;5.430;2022-12-26T07:37:09;10.05;;;7.32;;
44189;SDS011;29856;52.144;5.430;2022-12-26T07:39:34;8.80;;;6.35;;
44189;SDS011;29856;52.144;5.430;2022-12-26T07:42:00;12.05;;;6.60;;
44189;SDS011;29856;52.144;5.430;2022-12-26T07:44:30;9.68;;;6.57;;
44189;SDS011;29856;52.144;5.430;2022-12-26T07:46:56;8.05;;;6.43;;
44189;SDS011;29856;52.144;5.430;2022-12-26T07:49:23;9.70;;;5.55;;
44189;SDS011;29856;52.144;5.430;2022-12-26T07:51:49;11.38;;;6.38;;
44189;SDS011;29856;52.144;5.430;2022-12-26T07:54:14;11.00;;;6.53;;
44189;SDS011;29856;52.144;5.430;2022-12-26T07:56:40;8.55;;;5.72;;
44189;SDS011;29856;52.144;5.430;2022-12-26T07:59:07;7.80;;;5.75;;
44189;SDS011;29856;52.144;5.430;2022-12-26T08:01:37;13.13;;;5.68;;
44189;SDS011;29856;52.144;5.430;2022-12-26T08:04:02;11.07;;;6.03;;
44189;SDS011;29856;52.144;5.430;2022-12-26T08:06:28;10.30;;;5.60;;
44189;SDS011;29856;52.144;5.430;2022-12-26T08:08:53;9.55;;;5.47;;
44189;SDS011;29856;52.144;5.430;2022-12-26T08:11:20;7.13;;;5.15;;
44189;SDS011;29856;52.144;5.430;2022-12-26T08:13:47;6.25;;;4.85;;
44189;SDS011;29856;52.144;5.430;2022-12-26T08:16:13;8.07;;;4.82;;
44189;SDS011;29856;52.144;5.430;2022-12-26T08:18:40;12.88;;;4.30;;
44189;SDS011;29856;52.144;5.430;2022-12-26T08:21:06;9.05;;;4.28;;
44189;SDS011;29856;52.144;5.430;2022-12-26T08:23:32;11.32;;;4.90;;
44189;SDS011;29856;52.144;5.430;2022-12-26T08:25:58;11.77;;;4.95;;
44189;SDS011;29856;52.144;5.430;2022-12-26T08:28:27;7.72;;;3.72;;
44189;SDS011;29856;52.144;5.430;2022-12-26T08:30:52;8.95;;;4.10;;
44189;SDS011;29856;52.144;5.430;2022-12-26T08:33:18;10.30;;;3.75;;
44189;SDS011;29856;52.144;5.430;2022-12-26T08:35:43;10.48;;;3.38;;
44189;SDS011;29856;52.144;5.430;2022-12-26T08:38:09;9.60;;;3.83;;
44189;SDS011;29856;52.144;5.430;2022-12-26T08:40:34;11.95;;;3.30;;
44189;SDS011;29856;52.144;5.430;2022-12-26T08:43:00;11.85;;;3.33;;
44189;SDS011;29856;52.144;5.430;2022-12-26T08:45:25;5.82;;;2.70;;
44189;SDS011;29856;52.144;5.430;2022-12-26T08:47:51;11.63;;;3.50;;
44189;SDS011;29856;52.144;5.430;2022-12-26T08:50:18;10.80;;;3.28;;
44189;SDS011;29856;52.144;5.430;2022-12-26T08:52:43;7.95;;;2.70;;
44189;SDS011;29856;52.144;5.430;2022-12-26T08:55:09;7.15;;;2.90;;
44189;SDS011;29856;52.144;5.430;2022-12-26T08:57:35;13.10;;;3.72;;
44189;SDS011;29856;52.144;5.430;2022-12-26T09:00:00;9.52;;;2.60;;
44189;SDS011;29856;52.144;5.430;2022-12-26T09:02:26;5.97;;;2.83;;
44189;SDS011;29856;52.144;5.430;2022-12-26T09:04:51;8.02;;;2.80;;
44189;SDS011;29856;52.144;5.430;2022-12-26T09:07:17;12.18;;;3.47;;
44189;SDS011;29856;52.144;5.430;2022-12-26T09:09:42;7.20;;;3.25;;
44189;SDS011;29856;52.144;5.430;2022-12-26T09:12:08;14.65;;;3.03;;
44189;SDS011;29856;52.144;5.430;2022-12-26T09:14:34;11.00;;;2.78;;
44189;SDS011;29856;52.144;5.430;2022-12-26T09:16:59;7.93;;;2.72;;
44189;SDS011;29856;52.144;5.430;2022-12-26T09:19:25;5.57;;;2.78;;
44189;SDS011;29856;52.144;5.430;2022-12-26T09:21:50;8.00;;;2.72;;
44189;SDS011;29856;52.144;5.430;2022-12-26T09:24:16;7.00;;;2.80;;
44189;SDS011;29856;52.144;5.430;2022-12-26T09:26:42;8.45;;;2.30;;
44189;SDS011;29856;52.144;5.430;2022-12-26T09:29:09;6.15;;;2.38;;
44189;SDS011;29856;52.144;5.430;2022-12-26T09:31:36;3.63;;;2.00;;
44189;SDS011;29856;52.144;5.430;2022-12-26T09:34:05;4.55;;;2.00;;
44189;SDS011;29856;52.144;5.430;2022-12-26T09:36:33;6.95;;;2.00;;
44189;SDS011;29856;52.144;5.430;2022-12-26T09:39:00;7.82;;;2.00;;
44189;SDS011;29856;52.144;5.430;2022-12-26T09:44:18;6.93;;;2.30;;
44189;SDS011;29856;52.144;5.430;2022-12-26T09:49:40;8.52;;;2.63;;
44189;SDS011;29856;52.144;5.430;2022-12-26T09:52:22;7.10;;;1.80;;
44189;SDS011;29856;52.144;5.430;2022-12-26T09:54:57;8.57;;;2.72;;
44189;SDS011;29856;52.144;5.430;2022-12-26T09:57:33;14.20;;;2.75;;
44189;SDS011;29856;52.144;5.430;2022-12-26T10:00:04;21.42;;;2.97;;
44189;SDS011;29856;52.144;5.430;2022-12-26T10:02:31;16.95;;;3.28;;
44189;SDS011;29856;52.144;5.430;2022-12-26T10:04:56;22.90;;;3.40;;
44189;SDS011;29856;52.144;5.430;2022-12-26T10:07:35;15.10;;;2.97;;
44189;SDS011;29856;52.144;5.430;2022-12-26T10:10:27;22.05;;;3.65;;
44189;SDS011;29856;52.144;5.430;2022-12-26T10:18:37;12.68;;;2.60;;
44189;SDS011;29856;52.144;5.430;2022-12-26T10:24:13;14.32;;;2.33;;
44189;SDS011;29856;52.144;5.430;2022-12-26T10:26:43;6.55;;;1.83;;
44189;SDS011;29856;52.144;5.430;2022-12-26T10:29:18;11.55;;;2.20;;
44189;SDS011;29856;52.144;5.430;2022-12-26T10:31:58;12.15;;;2.13;;
44189;SDS011;29856;52.144;5.430;2022-12-26T10:34:31;13.13;;;2.45;;
44189;SDS011;29856;52.144;5.430;2022-12-26T10:37:02;11.85;;;1.90;;
44189;SDS011;29856;52.144;5.430;2022-12-26T10:45:00;22.83;;;3.90;;
44189;SDS011;29856;52.144;5.430;2022-12-26T10:47:32;19.00;;;2.85;;
44189;SDS011;29856;52.144;5.430;2022-12-26T10:50:01;11.82;;;2.88;;
44189;SDS011;29856;52.144;5.430;2022-12-26T10:52:32;18.30;;;2.67;;
44189;SDS011;29856;52.144;5.430;2022-12-26T10:55:02;18.20;;;2.63;;
44189;SDS011;29856;52.144;5.430;2022-12-26T10:57:29;12.88;;;2.15;;
44189;SDS011;29856;52.144;5.430;2022-12-26T10:59:58;14.55;;;2.25;;
44189;SDS011;29856;52.144;5.430;2022-12-26T11:02:27;9.43;;;2.10;;
44189;SDS011;29856;52.144;5.430;2022-12-26T11:04:56;7.97;;;1.42;;
44189;SDS011;29856;52.144;5.430;2022-12-26T11:07:40;12.48;;;1.52;;
44189;SDS011;29856;52.144;5.430;2022-12-26T11:10:17;11.18;;;1.58;;
44189;SDS011;29856;52.144;5.430;2022-12-26T11:12:47;14.40;;;1.83;;
44189;SDS011;29856;52.144;5.430;2022-12-26T11:15:19;11.57;;;1.70;;
44189;SDS011;29856;52.144;5.430;2022-12-26T11:18:05;10.10;;;1.80;;
44189;SDS011;29856;52.144;5.430;2022-12-26T11:20:51;9.32;;;1.83;;
44189;SDS011;29856;52.144;5.430;2022-12-26T11:23:20;5.13;;;1.20;;
44189;SDS011;29856;52.144;5.430;2022-12-26T11:25:51;13.82;;;1.35;;
44189;SDS011;29856;52.144;5.430;2022-12-26T11:28:39;9.48;;;1.65;;
44189;SDS011;29856;52.144;5.430;2022-12-26T11:31:05;12.27;;;1.85;;
44189;SDS011;29856;52.144;5.430;2022-12-26T11:33:35;13.32;;;2.20;;
44189;SDS011;29856;52.144;5.430;2022-12-26T11:38:49;11.93;;;1.52;;
44189;SDS011;29856;52.144;5.430;2022-12-26T11:43:48;9.50;;;1.75;;
44189;SDS011;29856;52.144;5.430;2022-12-26T11:46:16;8.40;;;1.50;;
44189;SDS011;29856;52.144;5.430;2022-12-26T11:48:45;7.88;;;1.50;;
44189;SDS011;29856;52.144;5.430;2022-12-26T11:51:13;12.23;;;1.60;;
44189;SDS011;29856;52.144;5.430;2022-12-26T11:53:39;9.95;;;1.77;;
44189;SDS011;29856;52.144;5.430;2022-12-26T11:56:04;13.77;;;1.70;;
44189;SDS011;29856;52.144;5.430;2022-12-26T11:58:31;4.93;;;1.13;;
44189;SDS011;29856;52.144;5.430;2022-12-26T12:11:24;14.13;;;2.20;;
44189;SDS011;29856;52.144;5.430;2022-12-26T12:14:00;11.25;;;1.73;;
44189;SDS011;29856;52.144;5.430;2022-12-26T12:19:49;8.77;;;1.85;;
44189;SDS011;29856;52.144;5.430;2022-12-26T12:27:30;7.45;;;1.20;;
44189;SDS011;29856;52.144;5.430;2022-12-26T12:30:07;12.80;;;1.30;;
44189;SDS011;29856;52.144;5.430;2022-12-26T12:38:06;6.50;;;1.00;;
44189;SDS011;29856;52.144;5.430;2022-12-26T12:43:39;3.97;;;1.10;;
44189;SDS011;29856;52.144;5.430;2022-12-26T12:49:37;6.75;;;1.30;;
44189;SDS011;29856;52.144;5.430;2022-12-26T13:00:48;5.45;;;1.38;;
44189;SDS011;29856;52.144;5.430;2022-12-26T13:06:07;8.90;;;1.50;;
44189;SDS011;29856;52.144;5.430;2022-12-26T13:08:44;8.30;;;1.70;;
44189;SDS011;29856;52.144;5.430;2022-12-26T13:13:53;6.93;;;1.23;;
44189;SDS011;29856;52.144;5.430;2022-12-26T13:16:39;9.43;;;1.90;;
44189;SDS011;29856;52.144;5.430;2022-12-26T13:19:50;7.32;;;1.50;;
44189;SDS011;29856;52.144;5.430;2022-12-26T13:22:00;9.77;;;2.22;;
44189;SDS011;29856;52.144;5.430;2022-12-26T13:24:32;7.32;;;1.50;;
44189;SDS011;29856;52.144;5.430;2022-12-26T13:27:12;7.70;;;1.52;;
44189;SDS011;29856;52.144;5.430;2022-12-26T13:29:43;7.38;;;1.40;;
44189;SDS011;29856;52.144;5.430;2022-12-26T13:32:14;6.00;;;1.15;;
44189;SDS011;29856;52.144;5.430;2022-12-26T13:34:55;14.48;;;2.28;;
44189;SDS011;29856;52.144;5.430;2022-12-26T13:42:55;9.32;;;1.25;;
44189;SDS011;29856;52.144;5.430;2022-12-26T13:48:02;10.20;;;1.25;;
44189;SDS011;29856;52.144;5.430;2022-12-26T13:50:50;9.90;;;1.30;;
44189;SDS011;29856;52.144;5.430;2022-12-26T13:55:49;12.35;;;1.90;;
44189;SDS011;29856;52.144;5.430;2022-12-26T14:01:24;8.02;;;1.60;;
44189;SDS011;29856;52.144;5.430;2022-12-26T14:15:33;14.25;;;2.03;;
44189;SDS011;29856;52.144;5.430;2022-12-26T14:18:13;13.85;;;1.90;;
44189;SDS011;29856;52.144;5.430;2022-12-26T14:23:55;13.13;;;2.08;;
44189;SDS011;29856;52.144;5.430;2022-12-26T14:29:26;12.70;;;2.72;;
44189;SDS011;29856;52.144;5.430;2022-12-26T14:37:42;24.88;;;2.63;;
44189;SDS011;29856;52.144;5.430;2022-12-26T14:40:32;9.95;;;1.88;;
44189;SDS011;29856;52.144;5.430;2022-12-26T14:43:09;12.60;;;1.85;;
44189;SDS011;29856;52.144;5.430;2022-12-26T14:45:43;10.80;;;1.73;;
44189;SDS011;29856;52.144;5.430;2022-12-26T14:58:28;13.23;;;1.90;;
44189;SDS011;29856;52.144;5.430;2022-12-26T15:03:43;9.93;;;1.60;;
44189;SDS011;29856;52.144;5.430;2022-12-26T15:09:10;21.20;;;2.45;;
44189;SDS011;29856;52.144;5.430;2022-12-26T15:22:33;26.13;;;13.02;;
44189;SDS011;29856;52.144;5.430;2022-12-26T15:38:43;13.35;;;2.80;;
44189;SDS011;29856;52.144;5.430;2022-12-26T15:43:54;18.58;;;9.23;;
44189;SDS011;29856;52.144;5.430;2022-12-26T15:46:32;28.42;;;14.68;;
44189;SDS011;29856;52.144;5.430;2022-12-26T15:54:45;17.10;;;7.70;;
44189;SDS011;29856;52.144;5.430;2022-12-26T15:57:19;25.85;;;13.88;;
44189;SDS011;29856;52.144;5.430;2022-12-26T16:02:41;40.17;;;25.42;;
44189;SDS011;29856;52.144;5.430;2022-12-26T16:05:22;33.95;;;20.55;;
44189;SDS011;29856;52.144;5.430;2022-12-26T16:08:12;24.48;;;13.30;;
44189;SDS011;29856;52.144;5.430;2022-12-26T16:13:48;46.97;;;23.77;;
44189;SDS011;29856;52.144;5.430;2022-12-26T16:16:24;26.70;;;8.88;;
44189;SDS011;29856;52.144;5.430;2022-12-26T16:18:52;20.10;;;8.38;;
44189;SDS011;29856;52.144;5.430;2022-12-26T16:21:18;30.88;;;16.30;;
44189;SDS011;29856;52.144;5.430;2022-12-26T16:23:46;40.80;;;20.17;;
44189;SDS011;29856;52.144;5.430;2022-12-26T16:26:18;22.70;;;8.65;;
44189;SDS011;29856;52.144;5.430;2022-12-26T16:28:48;13.85;;;6.15;;
44189;SDS011;29856;52.144;5.430;2022-12-26T16:31:19;37.30;;;13.60;;
44189;SDS011;29856;52.144;5.430;2022-12-26T16:33:48;78.72;;;39.33;;
44189;SDS011;29856;52.144;5.430;2022-12-26T16:36:20;23.92;;;10.85;;
44189;SDS011;29856;52.144;5.430;2022-12-26T16:38:53;19.20;;;6.95;;
44189;SDS011;29856;52.144;5.430;2022-12-26T16:41:29;17.10;;;5.75;;
44189;SDS011;29856;52.144;5.430;2022-12-26T16:43:56;14.85;;;5.78;;
44189;SDS011;29856;52.144;5.430;2022-12-26T16:46:44;19.45;;;4.35;;
44189;SDS011;29856;52.144;5.430;2022-12-26T16:49:10;22.92;;;9.45;;
44189;SDS011;29856;52.144;5.430;2022-12-26T16:51:43;23.00;;;8.73;;
44189;SDS011;29856;52.144;5.430;2022-12-26T16:56:46;30.77;;;14.43;;
44189;SDS011;29856;52.144;5.430;2022-12-26T16:59:15;43.45;;;15.45;;
44189;SDS011;29856;52.144;5.430;2022-12-26T17:01:49;54.60;;;23.05;;
44189;SDS011;29856;52.144;5.430;2022-12-26T17:04:18;23.05;;;10.55;;
44189;SDS011;29856;52.144;5.430;2022-12-26T17:06:58;33.88;;;15.20;;
44189;SDS011;29856;52.144;5.430;2022-12-26T17:09:28;17.63;;;5.05;;
44189;SDS011;29856;52.144;5.430;2022-12-26T17:14:27;16.83;;;5.45;;
44189;SDS011;29856;52.144;5.430;2022-12-26T17:17:00;20.25;;;6.28;;
44189;SDS011;29856;52.144;5.430;2022-12-26T17:19:29;16.35;;;5.53;;
44189;SDS011;29856;52.144;5.430;2022-12-26T17:27:45;14.30;;;4.55;;
44189;SDS011;29856;52.144;5.430;2022-12-26T17:30:19;11.50;;;5.20;;
44189;SDS011;29856;52.144;5.430;2022-12-26T17:32:53;14.10;;;6.03;;
44189;SDS011;29856;52.144;5.430;2022-12-26T17:35:23;20.27;;;5.35;;
44189;SDS011;29856;52.144;5.430;2022-12-26T17:37:53;15.80;;;5.22;;
44189;SDS011;29856;52.144;5.430;2022-12-26T17:43:06;17.95;;;6.68;;
44189;SDS011;29856;52.144;5.430;2022-12-26T17:45:34;16.30;;;6.45;;
44189;SDS011;29856;52.144;5.430;2022-12-26T17:48:00;15.23;;;5.68;;
44189;SDS011;29856;52.144;5.430;2022-12-26T17:50:30;13.90;;;4.82;;
44189;SDS011;29856;52.144;5.430;2022-12-26T17:55:55;16.38;;;4.55;;
44189;SDS011;29856;52.144;5.430;2022-12-26T17:58:22;23.65;;;6.05;;
44189;SDS011;29856;52.144;5.430;2022-12-26T18:00:48;14.57;;;4.45;;
44189;SDS011;29856;52.144;5.430;2022-12-26T18:03:14;15.48;;;7.22;;
44189;SDS011;29856;52.144;5.430;2022-12-26T18:05:39;21.25;;;6.75;;
44189;SDS011;29856;52.144;5.430;2022-12-26T18:08:05;12.40;;;4.07;;
44189;SDS011;29856;52.144;5.430;2022-12-26T18:10:33;15.23;;;4.40;;
44189;SDS011;29856;52.144;5.430;2022-12-26T18:12:59;21.48;;;6.68;;
44189;SDS011;29856;52.144;5.430;2022-12-26T18:15:26;23.90;;;9.38;;
44189;SDS011;29856;52.144;5.430;2022-12-26T18:17:53;18.33;;;6.28;;
44189;SDS011;29856;52.144;5.430;2022-12-26T18:20:21;56.42;;;21.65;;
44189;SDS011;29856;52.144;5.430;2022-12-26T18:22:52;33.70;;;12.18;;
44189;SDS011;29856;52.144;5.430;2022-12-26T18:25:18;68.32;;;29.73;;